sensor_id;sensor_type;location;lat;lon;timestamp;P1;durP1;ratioP1;P2;durP2;ratioP2
21038;SDS011;10678;51.002;4.786;2024-02-28T00:00:13;28.27;;;15.63;;
21038;SDS011;10678;51.002;4.786;2024-02-28T00:02:38;31.70;;;15.70;;
21038;SDS011;10678;51.002;4.786;2024-02-28T00:05:04;31.13;;;15.60;;
21038;SDS011;10678;51.002;4.786;2024-02-28T00:07:30;28.97;;;16.27;;
21038;SDS011;10678;51.002;4.786;2024-02-28T00:09:56;27.90;;;15.20;;
21038;SDS011;10678;51.002;4.786;2024-02-28T00:12:25;26.43;;;14.83;;
21038;SDS011;10678;51.002;4.786;2024-02-28T00:14:51;24.70;;;14.23;;
21038;SDS011;10678;51.002;4.786;2024-02-28T00:17:17;26.27;;;14.97;;
21038;SDS011;10678;51.002;4.786;2024-02-28T00:19:42;32.00;;;15.77;;
21038;SDS011;10678;51.002;4.786;2024-02-28T00:22:08;29.77;;;15.67;;
21038;SDS011;10678;51.002;4.786;2024-02-28T00:24:34;29.93;;;15.70;;
21038;SDS011;10678;51.002;4.786;2024-02-28T00:27:00;31.00;;;16.60;;
21038;SDS011;10678;51.002;4.786;2024-02-28T00:29:26;25.13;;;14.63;;
21038;SDS011;10678;51.002;4.786;2024-02-28T00:31:52;28.47;;;15.27;;
21038;SDS011;10678;51.002;4.786;2024-02-28T00:34:17;21.63;;;13.80;;
21038;SDS011;10678;51.002;4.786;2024-02-28T00:36:43;25.53;;;14.17;;
21038;SDS011;10678;51.002;4.786;2024-02-28T00:39:09;27.77;;;15.13;;
21038;SDS011;10678;51.002;4.786;2024-02-28T00:41:35;27.27;;;15.33;;
21038;SDS011;10678;51.002;4.786;2024-02-28T00:44:02;27.30;;;15.87;;
21038;SDS011;10678;51.002;4.786;2024-02-28T00:46:28;29.57;;;16.23;;
21038;SDS011;10678;51.002;4.786;2024-02-28T00:48:54;24.97;;;14.60;;
21038;SDS011;10678;51.002;4.786;2024-02-28T00:51:19;24.97;;;15.47;;
21038;SDS011;10678;51.002;4.786;2024-02-28T00:53:45;25.07;;;14.43;;
21038;SDS011;10678;51.002;4.786;2024-02-28T00:56:10;26.07;;;16.00;;
21038;SDS011;10678;51.002;4.786;2024-02-28T00:58:36;28.87;;;15.13;;
21038;SDS011;10678;51.002;4.786;2024-02-28T01:01:03;27.70;;;14.43;;
21038;SDS011;10678;51.002;4.786;2024-02-28T01:03:29;28.60;;;17.37;;
21038;SDS011;10678;51.002;4.786;2024-02-28T01:05:54;31.87;;;17.30;;
21038;SDS011;10678;51.002;4.786;2024-02-28T01:08:20;30.83;;;15.57;;
21038;SDS011;10678;51.002;4.786;2024-02-28T01:10:46;27.50;;;15.00;;
21038;SDS011;10678;51.002;4.786;2024-02-28T01:13:11;26.37;;;15.37;;
21038;SDS011;10678;51.002;4.786;2024-02-28T01:15:39;26.20;;;14.37;;
21038;SDS011;10678;51.002;4.786;2024-02-28T01:18:06;27.30;;;14.53;;
21038;SDS011;10678;51.002;4.786;2024-02-28T01:20:32;29.33;;;14.80;;
21038;SDS011;10678;51.002;4.786;2024-02-28T01:22:58;25.00;;;14.03;;
21038;SDS011;10678;51.002;4.786;2024-02-28T01:25:23;29.60;;;15.40;;
21038;SDS011;10678;51.002;4.786;2024-02-28T01:27:49;30.63;;;15.53;;
21038;SDS011;10678;51.002;4.786;2024-02-28T01:30:14;26.87;;;15.43;;
21038;SDS011;10678;51.002;4.786;2024-02-28T01:32:40;28.17;;;15.03;;
21038;SDS011;10678;51.002;4.786;2024-02-28T01:35:07;28.50;;;15.03;;
21038;SDS011;10678;51.002;4.786;2024-02-28T01:37:34;29.10;;;14.10;;
21038;SDS011;10678;51.002;4.786;2024-02-28T01:39:59;24.50;;;14.10;;
21038;SDS011;10678;51.002;4.786;2024-02-28T01:42:25;27.17;;;12.93;;
21038;SDS011;10678;51.002;4.786;2024-02-28T01:44:51;24.70;;;12.93;;
21038;SDS011;10678;51.002;4.786;2024-02-28T01:47:17;19.30;;;12.13;;
21038;SDS011;10678;51.002;4.786;2024-02-28T01:49:43;24.40;;;12.20;;
21038;SDS011;10678;51.002;4.786;2024-02-28T01:52:11;25.47;;;14.00;;
21038;SDS011;10678;51.002;4.786;2024-02-28T01:54:37;25.73;;;14.13;;
21038;SDS011;10678;51.002;4.786;2024-02-28T01:57:04;22.93;;;12.87;;
21038;SDS011;10678;51.002;4.786;2024-02-28T01:59:31;24.10;;;14.10;;
21038;SDS011;10678;51.002;4.786;2024-02-28T02:01:58;28.23;;;13.43;;
21038;SDS011;10678;51.002;4.786;2024-02-28T02:04:23;20.20;;;13.33;;
21038;SDS011;10678;51.002;4.786;2024-02-28T02:06:49;24.70;;;13.37;;
21038;SDS011;10678;51.002;4.786;2024-02-28T02:09:17;22.17;;;12.33;;
21038;SDS011;10678;51.002;4.786;2024-02-28T02:11:43;26.40;;;13.97;;
21038;SDS011;10678;51.002;4.786;2024-02-28T02:14:09;28.00;;;13.43;;
21038;SDS011;10678;51.002;4.786;2024-02-28T02:16:35;20.47;;;12.67;;
21038;SDS011;10678;51.002;4.786;2024-02-28T02:19:01;26.77;;;13.20;;
21038;SDS011;10678;51.002;4.786;2024-02-28T02:21:30;22.63;;;13.10;;
21038;SDS011;10678;51.002;4.786;2024-02-28T02:23:56;23.00;;;11.63;;
21038;SDS011;10678;51.002;4.786;2024-02-28T02:26:22;31.33;;;14.90;;
21038;SDS011;10678;51.002;4.786;2024-02-28T02:28:47;27.57;;;15.17;;
21038;SDS011;10678;51.002;4.786;2024-02-28T02:31:13;26.53;;;14.83;;
21038;SDS011;10678;51.002;4.786;2024-02-28T02:33:39;26.23;;;15.23;;
21038;SDS011;10678;51.002;4.786;2024-02-28T02:36:05;31.50;;;15.03;;
21038;SDS011;10678;51.002;4.786;2024-02-28T02:38:30;20.53;;;12.53;;
21038;SDS011;10678;51.002;4.786;2024-02-28T02:40:56;26.30;;;13.87;;
21038;SDS011;10678;51.002;4.786;2024-02-28T02:43:22;22.73;;;12.90;;
21038;SDS011;10678;51.002;4.786;2024-02-28T02:45:47;18.93;;;13.07;;
21038;SDS011;10678;51.002;4.786;2024-02-28T02:48:13;24.00;;;14.10;;
21038;SDS011;10678;51.002;4.786;2024-02-28T02:50:38;24.77;;;13.27;;
21038;SDS011;10678;51.002;4.786;2024-02-28T02:53:04;23.23;;;12.87;;
21038;SDS011;10678;51.002;4.786;2024-02-28T02:55:32;23.43;;;13.53;;
21038;SDS011;10678;51.002;4.786;2024-02-28T02:57:57;29.47;;;14.30;;
21038;SDS011;10678;51.002;4.786;2024-02-28T03:00:23;27.07;;;14.00;;
21038;SDS011;10678;51.002;4.786;2024-02-28T03:02:49;23.87;;;12.37;;
21038;SDS011;10678;51.002;4.786;2024-02-28T03:05:14;25.40;;;13.20;;
21038;SDS011;10678;51.002;4.786;2024-02-28T03:07:40;24.83;;;13.03;;
21038;SDS011;10678;51.002;4.786;2024-02-28T03:10:06;24.57;;;12.50;;
21038;SDS011;10678;51.002;4.786;2024-02-28T03:12:32;22.83;;;12.33;;
21038;SDS011;10678;51.002;4.786;2024-02-28T03:14:57;24.67;;;13.30;;
21038;SDS011;10678;51.002;4.786;2024-02-28T03:17:23;24.53;;;13.33;;
21038;SDS011;10678;51.002;4.786;2024-02-28T03:19:49;24.60;;;12.50;;
21038;SDS011;10678;51.002;4.786;2024-02-28T03:22:14;28.93;;;13.87;;
21038;SDS011;10678;51.002;4.786;2024-02-28T03:24:40;27.53;;;14.37;;
21038;SDS011;10678;51.002;4.786;2024-02-28T03:27:06;28.57;;;13.63;;
21038;SDS011;10678;51.002;4.786;2024-02-28T03:29:31;26.93;;;14.07;;
21038;SDS011;10678;51.002;4.786;2024-02-28T03:31:57;27.40;;;14.80;;
21038;SDS011;10678;51.002;4.786;2024-02-28T03:34:23;25.73;;;13.87;;
21038;SDS011;10678;51.002;4.786;2024-02-28T03:36:50;32.53;;;14.80;;
21038;SDS011;10678;51.002;4.786;2024-02-28T03:39:15;27.10;;;14.63;;
21038;SDS011;10678;51.002;4.786;2024-02-28T03:41:41;24.53;;;14.00;;
21038;SDS011;10678;51.002;4.786;2024-02-28T03:44:07;29.67;;;14.27;;
21038;SDS011;10678;51.002;4.786;2024-02-28T03:46:33;28.37;;;14.67;;
21038;SDS011;10678;51.002;4.786;2024-02-28T03:48:59;31.77;;;15.17;;
21038;SDS011;10678;51.002;4.786;2024-02-28T03:51:25;28.97;;;14.63;;
21038;SDS011;10678;51.002;4.786;2024-02-28T03:53:51;30.23;;;13.83;;
21038;SDS011;10678;51.002;4.786;2024-02-28T03:56:23;29.90;;;14.73;;
21038;SDS011;10678;51.002;4.786;2024-02-28T03:58:52;28.67;;;14.73;;
21038;SDS011;10678;51.002;4.786;2024-02-28T04:01:18;24.57;;;14.07;;
21038;SDS011;10678;51.002;4.786;2024-02-28T04:03:44;29.10;;;13.93;;
21038;SDS011;10678;51.002;4.786;2024-02-28T04:06:10;27.60;;;13.63;;
21038;SDS011;10678;51.002;4.786;2024-02-28T04:08:36;22.10;;;13.33;;
21038;SDS011;10678;51.002;4.786;2024-02-28T04:11:01;29.33;;;14.23;;
21038;SDS011;10678;51.002;4.786;2024-02-28T04:13:27;23.10;;;12.80;;
21038;SDS011;10678;51.002;4.786;2024-02-28T04:15:53;26.57;;;12.17;;
21038;SDS011;10678;51.002;4.786;2024-02-28T04:18:18;27.00;;;14.27;;
21038;SDS011;10678;51.002;4.786;2024-02-28T04:20:44;23.40;;;12.67;;
21038;SDS011;10678;51.002;4.786;2024-02-28T04:23:10;23.60;;;11.73;;
21038;SDS011;10678;51.002;4.786;2024-02-28T04:25:35;24.57;;;12.23;;
21038;SDS011;10678;51.002;4.786;2024-02-28T04:28:02;24.00;;;12.00;;
21038;SDS011;10678;51.002;4.786;2024-02-28T04:30:28;24.43;;;12.70;;
21038;SDS011;10678;51.002;4.786;2024-02-28T04:32:53;21.60;;;12.43;;
21038;SDS011;10678;51.002;4.786;2024-02-28T04:35:19;31.37;;;14.73;;
21038;SDS011;10678;51.002;4.786;2024-02-28T04:37:45;30.77;;;14.37;;
21038;SDS011;10678;51.002;4.786;2024-02-28T04:40:11;26.73;;;13.93;;
21038;SDS011;10678;51.002;4.786;2024-02-28T04:42:37;28.33;;;14.27;;
21038;SDS011;10678;51.002;4.786;2024-02-28T04:45:04;28.60;;;14.60;;
21038;SDS011;10678;51.002;4.786;2024-02-28T04:47:30;29.63;;;14.70;;
21038;SDS011;10678;51.002;4.786;2024-02-28T04:49:56;31.40;;;16.03;;
21038;SDS011;10678;51.002;4.786;2024-02-28T04:52:22;31.90;;;14.60;;
21038;SDS011;10678;51.002;4.786;2024-02-28T04:54:47;30.10;;;14.87;;
21038;SDS011;10678;51.002;4.786;2024-02-28T04:57:13;29.17;;;14.57;;
21038;SDS011;10678;51.002;4.786;2024-02-28T04:59:41;28.00;;;14.47;;
21038;SDS011;10678;51.002;4.786;2024-02-28T05:02:08;30.10;;;14.63;;
21038;SDS011;10678;51.002;4.786;2024-02-28T05:04:33;29.37;;;14.17;;
21038;SDS011;10678;51.002;4.786;2024-02-28T05:06:59;29.57;;;14.77;;
21038;SDS011;10678;51.002;4.786;2024-02-28T05:09:24;25.37;;;13.23;;
21038;SDS011;10678;51.002;4.786;2024-02-28T05:11:50;27.87;;;13.80;;
21038;SDS011;10678;51.002;4.786;2024-02-28T05:14:16;29.13;;;13.90;;
21038;SDS011;10678;51.002;4.786;2024-02-28T05:16:41;34.43;;;14.97;;
21038;SDS011;10678;51.002;4.786;2024-02-28T05:19:07;32.30;;;14.80;;
21038;SDS011;10678;51.002;4.786;2024-02-28T05:21:40;33.57;;;14.63;;
21038;SDS011;10678;51.002;4.786;2024-02-28T05:24:09;26.27;;;14.27;;
21038;SDS011;10678;51.002;4.786;2024-02-28T05:26:35;30.57;;;13.43;;
21038;SDS011;10678;51.002;4.786;2024-02-28T05:29:01;29.60;;;13.73;;
21038;SDS011;10678;51.002;4.786;2024-02-28T05:31:28;30.20;;;14.13;;
21038;SDS011;10678;51.002;4.786;2024-02-28T05:33:55;24.83;;;13.17;;
21038;SDS011;10678;51.002;4.786;2024-02-28T05:36:22;27.27;;;12.90;;
21038;SDS011;10678;51.002;4.786;2024-02-28T05:38:48;24.77;;;12.93;;
21038;SDS011;10678;51.002;4.786;2024-02-28T05:41:13;30.83;;;14.00;;
21038;SDS011;10678;51.002;4.786;2024-02-28T05:43:41;32.00;;;13.53;;
21038;SDS011;10678;51.002;4.786;2024-02-28T05:46:07;29.13;;;15.00;;
21038;SDS011;10678;51.002;4.786;2024-02-28T05:48:32;26.87;;;13.50;;
21038;SDS011;10678;51.002;4.786;2024-02-28T05:51:00;23.80;;;13.53;;
21038;SDS011;10678;51.002;4.786;2024-02-28T05:53:26;29.53;;;16.10;;
21038;SDS011;10678;51.002;4.786;2024-02-28T05:55:55;30.37;;;14.10;;
21038;SDS011;10678;51.002;4.786;2024-02-28T05:58:22;30.10;;;14.50;;
21038;SDS011;10678;51.002;4.786;2024-02-28T06:00:48;26.20;;;13.73;;
21038;SDS011;10678;51.002;4.786;2024-02-28T06:03:14;28.63;;;14.47;;
21038;SDS011;10678;51.002;4.786;2024-02-28T06:05:40;30.10;;;14.73;;
21038;SDS011;10678;51.002;4.786;2024-02-28T06:08:05;30.60;;;13.30;;
21038;SDS011;10678;51.002;4.786;2024-02-28T06:10:31;32.83;;;15.13;;
21038;SDS011;10678;51.002;4.786;2024-02-28T06:12:57;30.53;;;16.27;;
21038;SDS011;10678;51.002;4.786;2024-02-28T06:15:22;28.77;;;16.00;;
21038;SDS011;10678;51.002;4.786;2024-02-28T06:17:48;30.57;;;14.00;;
21038;SDS011;10678;51.002;4.786;2024-02-28T06:20:13;35.73;;;16.47;;
21038;SDS011;10678;51.002;4.786;2024-02-28T06:22:39;32.53;;;15.60;;
21038;SDS011;10678;51.002;4.786;2024-02-28T06:25:05;32.23;;;14.87;;
21038;SDS011;10678;51.002;4.786;2024-02-28T06:27:38;29.97;;;15.03;;
21038;SDS011;10678;51.002;4.786;2024-02-28T06:30:04;31.67;;;15.27;;
21038;SDS011;10678;51.002;4.786;2024-02-28T06:32:31;38.53;;;15.43;;
21038;SDS011;10678;51.002;4.786;2024-02-28T06:34:56;34.97;;;15.80;;
21038;SDS011;10678;51.002;4.786;2024-02-28T06:37:22;34.30;;;15.13;;
21038;SDS011;10678;51.002;4.786;2024-02-28T06:39:47;34.97;;;15.77;;
21038;SDS011;10678;51.002;4.786;2024-02-28T06:42:13;32.57;;;15.80;;
21038;SDS011;10678;51.002;4.786;2024-02-28T06:44:38;32.37;;;15.50;;
21038;SDS011;10678;51.002;4.786;2024-02-28T06:47:04;31.87;;;16.00;;
21038;SDS011;10678;51.002;4.786;2024-02-28T06:49:30;34.90;;;15.07;;
21038;SDS011;10678;51.002;4.786;2024-02-28T06:51:55;38.27;;;17.00;;
21038;SDS011;10678;51.002;4.786;2024-02-28T06:54:24;38.97;;;18.30;;
21038;SDS011;10678;51.002;4.786;2024-02-28T06:56:50;31.17;;;16.27;;
21038;SDS011;10678;51.002;4.786;2024-02-28T06:59:15;29.33;;;17.33;;
21038;SDS011;10678;51.002;4.786;2024-02-28T07:01:41;31.63;;;16.37;;
21038;SDS011;10678;51.002;4.786;2024-02-28T07:04:06;26.30;;;15.13;;
21038;SDS011;10678;51.002;4.786;2024-02-28T07:06:32;29.03;;;14.57;;
21038;SDS011;10678;51.002;4.786;2024-02-28T07:08:57;32.00;;;15.57;;
21038;SDS011;10678;51.002;4.786;2024-02-28T07:11:23;30.37;;;15.20;;
21038;SDS011;10678;51.002;4.786;2024-02-28T07:13:49;31.47;;;15.37;;
21038;SDS011;10678;51.002;4.786;2024-02-28T07:16:14;26.90;;;15.57;;
21038;SDS011;10678;51.002;4.786;2024-02-28T07:18:40;32.27;;;15.53;;
21038;SDS011;10678;51.002;4.786;2024-02-28T07:21:06;35.30;;;15.47;;
21038;SDS011;10678;51.002;4.786;2024-02-28T07:23:32;31.20;;;15.00;;
21038;SDS011;10678;51.002;4.786;2024-02-28T07:25:57;34.07;;;15.70;;
21038;SDS011;10678;51.002;4.786;2024-02-28T07:28:23;41.03;;;17.97;;
21038;SDS011;10678;51.002;4.786;2024-02-28T07:30:48;33.23;;;16.47;;
21038;SDS011;10678;51.002;4.786;2024-02-28T07:33:14;31.97;;;16.30;;
21038;SDS011;10678;51.002;4.786;2024-02-28T07:35:46;44.80;;;17.23;;
21038;SDS011;10678;51.002;4.786;2024-02-28T07:38:12;37.77;;;17.23;;
21038;SDS011;10678;51.002;4.786;2024-02-28T07:40:38;30.10;;;16.53;;
21038;SDS011;10678;51.002;4.786;2024-02-28T07:43:03;30.17;;;15.73;;
21038;SDS011;10678;51.002;4.786;2024-02-28T07:45:29;31.87;;;16.47;;
21038;SDS011;10678;51.002;4.786;2024-02-28T07:47:54;32.07;;;16.90;;
21038;SDS011;10678;51.002;4.786;2024-02-28T07:50:20;29.63;;;14.70;;
21038;SDS011;10678;51.002;4.786;2024-02-28T07:52:46;32.23;;;16.57;;
21038;SDS011;10678;51.002;4.786;2024-02-28T07:55:11;26.73;;;15.07;;
21038;SDS011;10678;51.002;4.786;2024-02-28T07:57:37;27.73;;;15.47;;
21038;SDS011;10678;51.002;4.786;2024-02-28T08:00:03;31.03;;;15.07;;
21038;SDS011;10678;51.002;4.786;2024-02-28T08:02:29;30.23;;;15.57;;
21038;SDS011;10678;51.002;4.786;2024-02-28T08:04:54;30.73;;;15.27;;
21038;SDS011;10678;51.002;4.786;2024-02-28T08:07:21;28.03;;;15.23;;
21038;SDS011;10678;51.002;4.786;2024-02-28T08:09:46;26.77;;;14.33;;
21038;SDS011;10678;51.002;4.786;2024-02-28T08:12:12;33.37;;;15.07;;
21038;SDS011;10678;51.002;4.786;2024-02-28T08:14:37;29.97;;;17.17;;
21038;SDS011;10678;51.002;4.786;2024-02-28T08:17:03;30.60;;;14.80;;
21038;SDS011;10678;51.002;4.786;2024-02-28T08:19:29;29.53;;;14.67;;
21038;SDS011;10678;51.002;4.786;2024-02-28T08:21:55;30.40;;;14.93;;
21038;SDS011;10678;51.002;4.786;2024-02-28T08:24:20;28.50;;;14.70;;
21038;SDS011;10678;51.002;4.786;2024-02-28T08:26:46;29.20;;;13.97;;
21038;SDS011;10678;51.002;4.786;2024-02-28T08:29:11;26.47;;;13.97;;
21038;SDS011;10678;51.002;4.786;2024-02-28T08:31:41;25.03;;;13.33;;
21038;SDS011;10678;51.002;4.786;2024-02-28T08:34:08;26.20;;;13.90;;
21038;SDS011;10678;51.002;4.786;2024-02-28T08:36:33;28.10;;;12.53;;
21038;SDS011;10678;51.002;4.786;2024-02-28T08:39:00;31.03;;;14.40;;
21038;SDS011;10678;51.002;4.786;2024-02-28T08:41:25;25.75;;;13.70;;
21038;SDS011;10678;51.002;4.786;2024-02-28T08:43:51;25.50;;;13.15;;
21038;SDS011;10678;51.002;4.786;2024-02-28T08:46:17;28.52;;;13.48;;
21038;SDS011;10678;51.002;4.786;2024-02-28T08:48:42;28.58;;;14.07;;
21038;SDS011;10678;51.002;4.786;2024-02-28T08:51:08;26.13;;;13.50;;
21038;SDS011;10678;51.002;4.786;2024-02-28T08:53:33;23.87;;;12.57;;
21038;SDS011;10678;51.002;4.786;2024-02-28T08:55:59;23.10;;;12.40;;
21038;SDS011;10678;51.002;4.786;2024-02-28T08:58:24;26.70;;;13.57;;
21038;SDS011;10678;51.002;4.786;2024-02-28T09:00:50;24.50;;;12.80;;
21038;SDS011;10678;51.002;4.786;2024-02-28T09:03:16;25.23;;;12.48;;
21038;SDS011;10678;51.002;4.786;2024-02-28T09:05:42;27.52;;;12.10;;
21038;SDS011;10678;51.002;4.786;2024-02-28T09:08:07;27.80;;;12.50;;
21038;SDS011;10678;51.002;4.786;2024-02-28T09:10:33;21.00;;;11.23;;
21038;SDS011;10678;51.002;4.786;2024-02-28T09:12:59;23.75;;;12.05;;
21038;SDS011;10678;51.002;4.786;2024-02-28T09:15:25;22.88;;;11.98;;
21038;SDS011;10678;51.002;4.786;2024-02-28T09:17:51;27.23;;;13.00;;
21038;SDS011;10678;51.002;4.786;2024-02-28T09:20:17;23.52;;;11.93;;
21038;SDS011;10678;51.002;4.786;2024-02-28T09:22:43;25.17;;;11.32;;
21038;SDS011;10678;51.002;4.786;2024-02-28T09:25:08;21.13;;;10.27;;
21038;SDS011;10678;51.002;4.786;2024-02-28T09:27:35;25.10;;;12.35;;
21038;SDS011;10678;51.002;4.786;2024-02-28T09:30:01;19.02;;;10.48;;
21038;SDS011;10678;51.002;4.786;2024-02-28T09:32:27;25.42;;;11.07;;
21038;SDS011;10678;51.002;4.786;2024-02-28T09:34:53;19.08;;;11.07;;
21038;SDS011;10678;51.002;4.786;2024-02-28T09:37:18;20.83;;;10.73;;
21038;SDS011;10678;51.002;4.786;2024-02-28T09:39:47;26.95;;;11.27;;
21038;SDS011;10678;51.002;4.786;2024-02-28T09:42:13;24.00;;;10.93;;
21038;SDS011;10678;51.002;4.786;2024-02-28T09:44:40;22.70;;;11.05;;
21038;SDS011;10678;51.002;4.786;2024-02-28T09:47:07;22.60;;;10.75;;
21038;SDS011;10678;51.002;4.786;2024-02-28T09:49:33;22.38;;;10.88;;
21038;SDS011;10678;51.002;4.786;2024-02-28T09:52:02;19.05;;;10.57;;
21038;SDS011;10678;51.002;4.786;2024-02-28T09:54:29;21.95;;;10.63;;
21038;SDS011;10678;51.002;4.786;2024-02-28T09:56:54;20.20;;;10.65;;
21038;SDS011;10678;51.002;4.786;2024-02-28T09:59:20;19.23;;;10.95;;
21038;SDS011;10678;51.002;4.786;2024-02-28T10:01:52;25.27;;;11.05;;
21038;SDS011;10678;51.002;4.786;2024-02-28T10:04:21;19.95;;;10.90;;
21038;SDS011;10678;51.002;4.786;2024-02-28T10:06:47;23.60;;;11.70;;
21038;SDS011;10678;51.002;4.786;2024-02-28T10:09:15;21.92;;;11.23;;
21038;SDS011;10678;51.002;4.786;2024-02-28T10:11:41;19.58;;;10.88;;
21038;SDS011;10678;51.002;4.786;2024-02-28T10:14:08;26.70;;;11.52;;
21038;SDS011;10678;51.002;4.786;2024-02-28T10:16:34;26.80;;;12.35;;
21038;SDS011;10678;51.002;4.786;2024-02-28T10:19:00;26.48;;;12.10;;
21038;SDS011;10678;51.002;4.786;2024-02-28T10:21:25;24.33;;;11.80;;
21038;SDS011;10678;51.002;4.786;2024-02-28T10:23:51;26.65;;;12.15;;
21038;SDS011;10678;51.002;4.786;2024-02-28T10:26:17;23.65;;;10.57;;
21038;SDS011;10678;51.002;4.786;2024-02-28T10:28:43;26.58;;;12.38;;
21038;SDS011;10678;51.002;4.786;2024-02-28T10:31:11;21.60;;;11.13;;
21038;SDS011;10678;51.002;4.786;2024-02-28T10:33:37;22.80;;;12.50;;
21038;SDS011;10678;51.002;4.786;2024-02-28T10:36:03;26.85;;;11.50;;
21038;SDS011;10678;51.002;4.786;2024-02-28T10:38:30;22.83;;;11.27;;
21038;SDS011;10678;51.002;4.786;2024-02-28T10:40:58;24.85;;;11.90;;
21038;SDS011;10678;51.002;4.786;2024-02-28T10:43:30;26.25;;;12.55;;
21038;SDS011;10678;51.002;4.786;2024-02-28T10:45:59;23.45;;;10.90;;
21038;SDS011;10678;51.002;4.786;2024-02-28T10:48:25;24.48;;;11.25;;
21038;SDS011;10678;51.002;4.786;2024-02-28T10:50:52;23.35;;;11.63;;
21038;SDS011;10678;51.002;4.786;2024-02-28T10:53:21;24.15;;;10.63;;
21038;SDS011;10678;51.002;4.786;2024-02-28T10:56:09;32.97;;;10.95;;
21038;SDS011;10678;51.002;4.786;2024-02-28T10:58:36;25.55;;;10.68;;
21038;SDS011;10678;51.002;4.786;2024-02-28T11:01:06;20.85;;;9.70;;
21038;SDS011;10678;51.002;4.786;2024-02-28T11:03:33;20.67;;;10.15;;
21038;SDS011;10678;51.002;4.786;2024-02-28T11:05:59;24.33;;;9.70;;
21038;SDS011;10678;51.002;4.786;2024-02-28T11:08:26;19.83;;;8.95;;
21038;SDS011;10678;51.002;4.786;2024-02-28T11:10:56;21.88;;;9.52;;
21038;SDS011;10678;51.002;4.786;2024-02-28T11:13:26;19.50;;;9.52;;
21038;SDS011;10678;51.002;4.786;2024-02-28T11:15:53;21.40;;;9.27;;
21038;SDS011;10678;51.002;4.786;2024-02-28T11:18:20;20.40;;;8.50;;
21038;SDS011;10678;51.002;4.786;2024-02-28T11:20:46;20.58;;;8.43;;
21038;SDS011;10678;51.002;4.786;2024-02-28T11:23:13;19.92;;;8.20;;
21038;SDS011;10678;51.002;4.786;2024-02-28T11:25:40;16.48;;;8.10;;
21038;SDS011;10678;51.002;4.786;2024-02-28T11:28:06;19.45;;;8.38;;
21038;SDS011;10678;51.002;4.786;2024-02-28T11:30:32;18.00;;;8.25;;
21038;SDS011;10678;51.002;4.786;2024-02-28T11:32:58;15.32;;;7.13;;
21038;SDS011;10678;51.002;4.786;2024-02-28T11:35:27;16.85;;;7.68;;
21038;SDS011;10678;51.002;4.786;2024-02-28T11:37:53;18.50;;;7.72;;
21038;SDS011;10678;51.002;4.786;2024-02-28T11:40:23;13.32;;;7.03;;
21038;SDS011;10678;51.002;4.786;2024-02-28T11:42:50;13.15;;;6.40;;
21038;SDS011;10678;51.002;4.786;2024-02-28T11:45:19;13.57;;;6.05;;
21038;SDS011;10678;51.002;4.786;2024-02-28T11:47:45;11.10;;;5.95;;
21038;SDS011;10678;51.002;4.786;2024-02-28T11:50:11;13.52;;;6.50;;
21038;SDS011;10678;51.002;4.786;2024-02-28T11:52:37;12.88;;;6.07;;
21038;SDS011;10678;51.002;4.786;2024-02-28T11:55:03;12.40;;;6.18;;
21038;SDS011;10678;51.002;4.786;2024-02-28T11:57:29;10.57;;;5.93;;
21038;SDS011;10678;51.002;4.786;2024-02-28T11:59:58;17.52;;;6.80;;
21038;SDS011;10678;51.002;4.786;2024-02-28T12:02:39;13.52;;;7.00;;
21038;SDS011;10678;51.002;4.786;2024-02-28T12:05:05;13.05;;;6.38;;
21038;SDS011;10678;51.002;4.786;2024-02-28T12:07:31;15.50;;;6.22;;
21038;SDS011;10678;51.002;4.786;2024-02-28T12:09:57;16.38;;;6.50;;
21038;SDS011;10678;51.002;4.786;2024-02-28T12:12:26;14.57;;;6.07;;
21038;SDS011;10678;51.002;4.786;2024-02-28T12:14:52;13.68;;;6.35;;
21038;SDS011;10678;51.002;4.786;2024-02-28T12:17:22;15.15;;;6.60;;
21038;SDS011;10678;51.002;4.786;2024-02-28T12:19:50;13.63;;;6.40;;
21038;SDS011;10678;51.002;4.786;2024-02-28T12:22:16;15.50;;;6.30;;
21038;SDS011;10678;51.002;4.786;2024-02-28T12:24:41;10.52;;;5.78;;
21038;SDS011;10678;51.002;4.786;2024-02-28T12:27:07;17.25;;;6.57;;
21038;SDS011;10678;51.002;4.786;2024-02-28T12:29:32;15.25;;;6.20;;
21038;SDS011;10678;51.002;4.786;2024-02-28T12:31:58;14.88;;;6.45;;
21038;SDS011;10678;51.002;4.786;2024-02-28T12:34:24;11.50;;;5.68;;
21038;SDS011;10678;51.002;4.786;2024-02-28T12:36:49;10.80;;;5.38;;
21038;SDS011;10678;51.002;4.786;2024-02-28T12:39:15;12.88;;;5.60;;
21038;SDS011;10678;51.002;4.786;2024-02-28T12:41:43;11.45;;;5.22;;
21038;SDS011;10678;51.002;4.786;2024-02-28T12:44:09;11.93;;;5.95;;
21038;SDS011;10678;51.002;4.786;2024-02-28T12:46:35;16.48;;;6.32;;
21038;SDS011;10678;51.002;4.786;2024-02-28T12:49:01;15.27;;;6.95;;
21038;SDS011;10678;51.002;4.786;2024-02-28T12:51:37;13.40;;;6.75;;
21038;SDS011;10678;51.002;4.786;2024-02-28T12:54:07;12.48;;;6.13;;
21038;SDS011;10678;51.002;4.786;2024-02-28T12:56:36;12.75;;;6.45;;
21038;SDS011;10678;51.002;4.786;2024-02-28T12:59:03;12.15;;;6.78;;
21038;SDS011;10678;51.002;4.786;2024-02-28T13:01:29;14.63;;;7.43;;
21038;SDS011;10678;51.002;4.786;2024-02-28T13:03:57;14.25;;;7.53;;
21038;SDS011;10678;51.002;4.786;2024-02-28T13:06:22;13.70;;;7.40;;
21038;SDS011;10678;51.002;4.786;2024-02-28T13:08:48;15.15;;;6.68;;
21038;SDS011;10678;51.002;4.786;2024-02-28T13:11:20;11.68;;;6.03;;
21038;SDS011;10678;51.002;4.786;2024-02-28T13:13:47;14.68;;;7.22;;
21038;SDS011;10678;51.002;4.786;2024-02-28T13:16:14;14.48;;;6.95;;
21038;SDS011;10678;51.002;4.786;2024-02-28T13:18:43;15.70;;;7.78;;
21038;SDS011;10678;51.002;4.786;2024-02-28T13:21:10;19.83;;;7.93;;
21038;SDS011;10678;51.002;4.786;2024-02-28T13:23:36;13.32;;;6.55;;
21038;SDS011;10678;51.002;4.786;2024-02-28T13:26:05;15.98;;;7.03;;
21038;SDS011;10678;51.002;4.786;2024-02-28T13:28:31;16.58;;;7.43;;
21038;SDS011;10678;51.002;4.786;2024-02-28T13:31:01;16.75;;;6.80;;
21038;SDS011;10678;51.002;4.786;2024-02-28T13:33:27;13.30;;;6.97;;
21038;SDS011;10678;51.002;4.786;2024-02-28T13:35:53;11.15;;;6.38;;
21038;SDS011;10678;51.002;4.786;2024-02-28T13:38:20;12.65;;;6.65;;
21038;SDS011;10678;51.002;4.786;2024-02-28T13:40:46;12.88;;;5.88;;
21038;SDS011;10678;51.002;4.786;2024-02-28T13:43:12;10.80;;;5.45;;
21038;SDS011;10678;51.002;4.786;2024-02-28T13:45:38;14.50;;;6.13;;
21038;SDS011;10678;51.002;4.786;2024-02-28T13:48:17;13.63;;;6.72;;
21038;SDS011;10678;51.002;4.786;2024-02-28T13:50:46;13.30;;;6.45;;
21038;SDS011;10678;51.002;4.786;2024-02-28T13:53:13;18.38;;;9.63;;
21038;SDS011;10678;51.002;4.786;2024-02-28T13:55:40;14.75;;;8.07;;
21038;SDS011;10678;51.002;4.786;2024-02-28T13:58:07;10.90;;;5.47;;
21038;SDS011;10678;51.002;4.786;2024-02-28T14:00:34;9.98;;;5.18;;
21038;SDS011;10678;51.002;4.786;2024-02-28T14:03:00;9.07;;;5.20;;
21038;SDS011;10678;51.002;4.786;2024-02-28T14:05:27;6.78;;;3.65;;
21038;SDS011;10678;51.002;4.786;2024-02-28T14:07:53;11.38;;;4.40;;
21038;SDS011;10678;51.002;4.786;2024-02-28T14:10:19;8.85;;;4.43;;
21038;SDS011;10678;51.002;4.786;2024-02-28T14:12:46;9.73;;;5.63;;
21038;SDS011;10678;51.002;4.786;2024-02-28T14:15:12;9.65;;;4.90;;
21038;SDS011;10678;51.002;4.786;2024-02-28T14:17:37;9.85;;;5.15;;
21038;SDS011;10678;51.002;4.786;2024-02-28T14:20:03;11.60;;;4.95;;